Time;durP1;ratioP1;P1;durP2;ratioP2;P2;SDS_P1;SDS_P2;PMS_P1;PMS_P2;Temp;Humidity;BMP_temperature;BMP_pressure;BME280_temperature;BME280_humidity;BME280_pressure;Samples;Min_cycle;Max_cycle;Signal;HPM_P1;HPM_P2
2023/01/26 00:00:59;;;;;;;16.10;9.55;;;0.50;99.90;;;;;;7391606;19;20407;-81
2023/01/26 00:03:24;;;;;;;12.90;8.02;;;0.60;99.90;;;;;;7393255;19;20356;-83
2023/01/26 00:05:50;;;;;;;10.63;7.88;;;0.60;99.90;;;;;;7392450;19;20304;-89
2023/01/26 00:08:16;;;;;;;12.55;8.50;;;0.60;99.90;;;;;;7392718;19;20319;-83
2023/01/26 00:10:49;;;;;;;11.63;8.60;;;0.70;99.90;;;;;;7394403;19;20351;-84
2023/01/26 00:13:21;;;;;;;12.98;8.73;;;0.70;99.90;;;;;;7392443;19;20322;-89
2023/01/26 00:15:47;;;;;;;12.95;8.35;;;0.80;99.90;;;;;;7392086;19;20386;-84
2023/01/26 00:18:12;;;;;;;12.45;8.23;;;0.80;99.90;;;;;;7391096;19;20296;-92
2023/01/26 00:20:38;;;;;;;13.47;7.57;;;0.70;99.90;;;;;;7390239;19;20309;-88
2023/01/26 00:23:04;;;;;;;11.52;8.57;;;0.80;99.90;;;;;;7391046;19;20320;-85
2023/01/26 00:25:29;;;;;;;12.37;8.40;;;0.70;99.90;;;;;;7391091;19;20316;-83
2023/01/26 00:27:56;;;;;;;14.65;9.35;;;0.70;99.90;;;;;;7390708;19;20380;-85
2023/01/26 00:30:21;;;;;;;15.80;9.10;;;0.50;99.90;;;;;;7390708;19;20312;-88
2023/01/26 00:32:47;;;;;;;12.00;8.80;;;0.60;99.90;;;;;;7390928;19;20389;-89
2023/01/26 00:35:15;;;;;;;13.20;8.30;;;0.70;99.90;;;;;;7391302;19;20825;-84
2023/01/26 00:37:41;;;;;;;13.20;8.93;;;0.70;99.90;;;;;;7389803;19;20328;-85
2023/01/26 00:40:07;;;;;;;12.20;8.47;;;0.60;99.90;;;;;;7389592;19;20324;-89
2023/01/26 00:42:34;;;;;;;12.05;7.78;;;0.60;99.90;;;;;;7391088;19;20826;-86
2023/01/26 00:44:59;;;;;;;10.93;7.47;;;0.50;99.90;;;;;;7392170;19;20313;-83
2023/01/26 00:47:25;;;;;;;9.95;7.05;;;0.50;99.90;;;;;;7388121;19;20368;-85
2023/01/26 00:49:53;;;;;;;11.73;7.93;;;0.50;99.90;;;;;;7388260;19;20330;-87
2023/01/26 00:52:18;;;;;;;10.05;7.55;;;0.50;99.90;;;;;;7388064;19;20297;-83
2023/01/26 00:54:44;;;;;;;10.60;7.67;;;0.40;99.90;;;;;;7386778;19;20320;-88
2023/01/26 00:57:09;;;;;;;11.35;6.72;;;0.50;99.90;;;;;;7387264;19;20987;-86
2023/01/26 00:59:35;;;;;;;9.47;7.00;;;0.60;99.90;;;;;;7390199;19;20312;-86
2023/01/26 01:02:01;;;;;;;9.35;6.85;;;0.70;99.90;;;;;;7386458;19;20325;-86
2023/01/26 01:04:28;;;;;;;11.02;7.60;;;0.70;99.90;;;;;;7387990;19;20301;-84
2023/01/26 01:06:54;;;;;;;9.57;6.50;;;0.70;99.90;;;;;;7390055;19;20346;-83
2023/01/26 01:09:22;;;;;;;9.88;7.32;;;0.80;99.90;;;;;;7395601;19;20339;-88
2023/01/26 01:11:48;;;;;;;9.55;6.85;;;0.80;99.90;;;;;;7391999;19;20332;-91
2023/01/26 01:14:14;;;;;;;12.10;7.97;;;0.80;99.90;;;;;;7392826;19;20296;-80
2023/01/26 01:16:41;;;;;;;10.50;7.43;;;0.80;99.90;;;;;;7393234;19;20328;-88
2023/01/26 01:19:07;;;;;;;11.57;7.45;;;0.80;99.90;;;;;;7393320;19;20689;-82
2023/01/26 01:21:35;;;;;;;10.52;7.72;;;0.90;99.90;;;;;;7392407;19;21160;-87
2023/01/26 01:24:00;;;;;;;10.35;7.13;;;0.80;99.90;;;;;;7393113;19;20651;-89
2023/01/26 01:26:26;;;;;;;10.90;7.27;;;0.90;99.90;;;;;;7392425;19;20300;-88
2023/01/26 01:28:56;;;;;;;11.57;6.90;;;0.80;99.90;;;;;;7393428;19;21152;-91
2023/01/26 01:31:22;;;;;;;11.05;7.50;;;0.70;99.90;;;;;;7391747;19;20328;-84
2023/01/26 01:33:48;;;;;;;12.20;7.72;;;0.70;99.90;;;;;;7392890;19;20300;-87
2023/01/26 01:36:14;;;;;;;13.43;7.90;;;0.70;99.90;;;;;;7393222;19;20315;-81
2023/01/26 01:38:41;;;;;;;12.13;7.82;;;0.80;99.90;;;;;;7392083;19;20316;-82
2023/01/26 01:41:06;;;;;;;12.45;8.50;;;0.80;99.90;;;;;;7391614;19;20335;-88
2023/01/26 01:43:32;;;;;;;13.80;8.37;;;0.90;99.90;;;;;;7387880;19;20953;-83
2023/01/26 01:45:59;;;;;;;13.27;7.82;;;0.90;99.90;;;;;;7392470;19;20372;-83
2023/01/26 01:48:27;;;;;;;13.13;8.43;;;0.90;99.90;;;;;;7392349;19;20341;-91
2023/01/26 01:50:56;;;;;;;11.95;7.03;;;0.80;99.90;;;;;;7390987;19;20336;-86
2023/01/26 01:53:26;;;;;;;14.53;8.80;;;0.80;99.90;;;;;;7391529;19;20328;-87
2023/01/26 01:55:53;;;;;;;11.20;7.18;;;0.80;99.90;;;;;;7390925;19;20941;-84
2023/01/26 01:58:19;;;;;;;12.48;7.10;;;0.80;99.90;;;;;;7392651;19;20321;-83
2023/01/26 02:00:45;;;;;;;11.00;7.40;;;0.80;99.90;;;;;;7390441;19;20355;-85
2023/01/26 02:03:10;;;;;;;9.63;7.20;;;0.70;99.90;;;;;;7391721;19;20329;-81
2023/01/26 02:05:49;;;;;;;9.55;6.88;;;0.70;99.90;;;;;;7391316;19;20309;-81
2023/01/26 02:08:15;;;;;;;10.43;7.28;;;0.70;99.90;;;;;;7390961;19;20305;-87
2023/01/26 02:10:46;;;;;;;11.20;6.95;;;0.80;99.90;;;;;;7391175;19;20343;-81
2023/01/26 02:13:11;;;;;;;11.02;6.97;;;0.50;99.90;;;;;;7389762;19;20663;-86
2023/01/26 02:15:40;;;;;;;10.33;7.30;;;0.70;99.90;;;;;;7391198;19;20391;-83
2023/01/26 02:18:07;;;;;;;13.27;7.07;;;0.50;99.90;;;;;;7390738;19;20325;-84
2023/01/26 02:21:00;;;;;;;11.57;7.82;;;0.60;99.90;;;;;;7390992;19;20317;-91
2023/01/26 02:23:50;;;;;;;15.20;8.80;;;0.60;99.90;;;;;;7288946;19;2004337;-80
2023/01/26 02:26:22;;;;;;;12.45;8.35;;;0.50;99.90;;;;;;7391521;19;20312;-84
2023/01/26 02:28:50;;;;;;;11.90;7.80;;;0.50;99.90;;;;;;7389654;19;20312;-81
2023/01/26 02:31:15;;;;;;;11.45;7.90;;;0.50;99.90;;;;;;7389310;19;20316;-83
2023/01/26 02:33:41;;;;;;;12.17;7.17;;;0.40;99.90;;;;;;7390511;19;20331;-87
2023/01/26 02:36:09;;;;;;;12.95;8.38;;;0.50;99.90;;;;;;7391511;19;20313;-87
2023/01/26 02:38:48;;;;;;;10.73;7.55;;;0.50;99.90;;;;;;7390704;19;20324;-80
2023/01/26 02:42:37;;;;;;;10.18;7.30;;;0.40;99.90;;;;;;7389346;19;20307;-83
2023/01/26 02:44:03;;;;;;;12.82;8.63;;;0.50;99.90;;;;;;7287574;19;2004500;-87
2023/01/26 02:46:29;;;;;;;10.20;7.07;;;0.50;99.90;;;;;;7389731;19;20317;-80
2023/01/26 02:51:40;;;;;;;12.70;7.90;;;0.50;99.90;;;;;;7385701;19;20849;-87
2023/01/26 02:54:06;;;;;;;14.25;8.48;;;0.60;99.90;;;;;;7388959;19;20327;-84
2023/01/26 02:56:32;;;;;;;14.55;8.20;;;0.50;99.90;;;;;;7389330;19;20344;-89
2023/01/26 02:58:58;;;;;;;10.93;7.35;;;0.50;99.90;;;;;;7391287;19;20313;-87
2023/01/26 03:01:24;;;;;;;10.93;7.57;;;0.50;99.90;;;;;;7389361;19;20301;-87
2023/01/26 03:03:49;;;;;;;11.10;7.00;;;0.50;99.90;;;;;;7390764;19;20313;-84
2023/01/26 03:06:15;;;;;;;11.10;7.00;;;0.50;99.90;;;;;;7389106;19;20321;-82
2023/01/26 03:08:41;;;;;;;10.32;6.55;;;0.50;99.90;;;;;;7389568;19;20329;-86
2023/01/26 03:11:07;;;;;;;11.48;7.20;;;0.50;99.90;;;;;;7388687;19;20333;-80
2023/01/26 03:13:32;;;;;;;11.60;6.93;;;0.40;99.90;;;;;;7388934;19;20345;-88
2023/01/26 03:16:05;;;;;;;10.05;6.53;;;0.50;99.90;;;;;;7388926;19;20313;-87
2023/01/26 03:29:37;;;;;;;9.73;6.97;;;0.40;99.90;;;;;;7383696;19;20321;-83
2023/01/26 03:32:02;;;;;;;12.65;7.03;;;0.40;99.90;;;;;;7385814;19;20325;-84
2023/01/26 03:34:34;;;;;;;9.57;6.70;;;0.40;99.90;;;;;;7385759;19;20379;-81
2023/01/26 03:37:01;;;;;;;13.13;7.10;;;0.40;99.90;;;;;;7386379;19;20330;-84
2023/01/26 03:56:13;;;;;;;8.32;5.60;;;0.50;99.90;;;;;;7282851;19;2004265;-82
2023/01/26 03:58:39;;;;;;;8.00;5.57;;;0.50;99.90;;;;;;7384866;19;20311;-84
2023/01/26 04:01:05;;;;;;;9.40;6.65;;;0.60;99.90;;;;;;7384755;19;20332;-83
2023/01/26 04:08:59;;;;;;;8.63;5.80;;;0.40;99.90;;;;;;7281307;19;2004568;-87
2023/01/26 04:11:25;;;;;;;9.67;6.70;;;0.40;99.90;;;;;;7383618;19;20321;-84
2023/01/26 04:22:04;;;;;;;12.50;6.57;;;0.40;99.90;;;;;;7280561;19;2004530;-81
2023/01/26 04:24:32;;;;;;;9.98;6.78;;;0.40;99.90;;;;;;7384327;19;20336;-83
2023/01/26 04:26:58;;;;;;;11.73;6.85;;;0.40;99.90;;;;;;7383993;19;20329;-83
2023/01/26 04:29:27;;;;;;;9.40;6.03;;;0.50;99.90;;;;;;7384870;19;20332;-83
2023/01/26 04:31:54;;;;;;;11.50;6.30;;;0.30;99.90;;;;;;7383471;19;20326;-87
2023/01/26 04:34:21;;;;;;;11.02;7.18;;;0.40;99.90;;;;;;7386138;19;20321;-81
2023/01/26 04:36:47;;;;;;;9.88;7.13;;;0.50;99.90;;;;;;7385138;19;20297;-82
2023/01/26 04:39:14;;;;;;;10.05;7.03;;;0.40;99.90;;;;;;7384406;19;20349;-80
2023/01/26 04:41:46;;;;;;;11.90;7.15;;;0.40;99.90;;;;;;7384829;19;20842;-84
2023/01/26 04:44:15;;;;;;;9.18;6.57;;;0.30;99.90;;;;;;7381381;19;20411;-82
2023/01/26 04:46:41;;;;;;;9.73;6.63;;;0.30;99.90;;;;;;7380985;19;20305;-86
2023/01/26 04:49:09;;;;;;;9.80;7.00;;;0.40;99.90;;;;;;7383042;19;20364;-80
2023/01/26 04:51:35;;;;;;;10.45;6.53;;;0.40;99.90;;;;;;7385184;19;20395;-83
2023/01/26 04:54:01;;;;;;;9.90;6.40;;;0.40;99.90;;;;;;7382346;19;20731;-79
2023/01/26 04:56:30;;;;;;;10.82;7.13;;;0.40;99.90;;;;;;7381725;19;20304;-81
2023/01/26 04:58:58;;;;;;;11.27;7.05;;;0.40;99.90;;;;;;7382970;19;20316;-80
2023/01/26 05:01:30;;;;;;;9.27;6.50;;;0.40;99.90;;;;;;7382177;19;20326;-83
2023/01/26 05:03:59;;;;;;;10.00;6.05;;;0.50;99.90;;;;;;7384995;19;20316;-79
2023/01/26 05:06:24;;;;;;;10.65;6.93;;;0.40;99.90;;;;;;7385610;19;20318;-86
2023/01/26 05:08:50;;;;;;;12.82;6.85;;;0.40;99.90;;;;;;7387867;19;20384;-86
2023/01/26 05:11:16;;;;;;;10.75;6.78;;;0.40;99.90;;;;;;7385095;19;20400;-86
2023/01/26 05:14:05;;;;;;;12.25;7.28;;;0.40;99.90;;;;;;7282680;19;2004412;-80
2023/01/26 05:16:36;;;;;;;12.20;7.65;;;0.30;99.90;;;;;;7385674;19;20321;-81
2023/01/26 05:19:05;;;;;;;11.43;7.30;;;0.40;99.90;;;;;;7392002;19;20309;-83
2023/01/26 05:21:51;;;;;;;13.05;8.65;;;0.40;99.90;;;;;;7393024;19;20320;-91
2023/01/26 05:24:17;;;;;;;8.52;6.10;;;0.40;99.90;;;;;;7386558;19;20625;-87
2023/01/26 05:30:02;;;;;;;11.13;7.20;;;0.50;99.90;;;;;;7282754;19;2004175;-88
2023/01/26 05:32:31;;;;;;;10.47;7.03;;;0.50;99.90;;;;;;7382217;19;20319;-84
2023/01/26 05:34:57;;;;;;;11.82;6.28;;;0.50;99.90;;;;;;7384409;19;20325;-87
2023/01/26 05:37:24;;;;;;;13.63;7.93;;;0.50;99.90;;;;;;7387183;19;20325;-86
2023/01/26 05:39:49;;;;;;;8.93;6.63;;;0.50;99.90;;;;;;7385467;19;20326;-81
2023/01/26 05:42:15;;;;;;;11.07;7.20;;;0.40;99.90;;;;;;7393053;19;20347;-88
2023/01/26 05:44:50;;;;;;;10.02;6.22;;;0.50;99.90;;;;;;7387940;19;20324;-80
2023/01/26 05:47:16;;;;;;;11.45;7.00;;;0.50;99.90;;;;;;7383836;19;20320;-85
2023/01/26 05:49:45;;;;;;;11.30;7.47;;;0.50;99.90;;;;;;7386612;19;20304;-79
2023/01/26 05:52:16;;;;;;;10.63;6.78;;;0.50;99.90;;;;;;7386567;19;20309;-80
2023/01/26 05:54:42;;;;;;;9.70;6.80;;;0.40;99.90;;;;;;7393594;19;20323;-82
2023/01/26 05:57:08;;;;;;;10.70;7.10;;;0.30;99.90;;;;;;7393084;19;20337;-81
2023/01/26 05:59:36;;;;;;;10.45;7.05;;;0.30;99.90;;;;;;7391600;19;20341;-85
2023/01/26 06:02:04;;;;;;;9.07;6.00;;;0.30;99.90;;;;;;7389168;19;20312;-83
2023/01/26 06:04:29;;;;;;;10.63;6.75;;;0.40;99.90;;;;;;7393072;19;20401;-88
2023/01/26 06:06:58;;;;;;;9.73;6.53;;;0.40;99.90;;;;;;7389770;19;20316;-81
2023/01/26 06:09:29;;;;;;;8.93;6.57;;;0.40;99.90;;;;;;7386265;19;21166;-79
2023/01/26 06:12:21;;;;;;;9.30;6.07;;;0.40;99.90;;;;;;7380247;19;20313;-81
2023/01/26 06:15:44;;;;;;;9.27;6.78;;;0.50;99.90;;;;;;7285096;19;2004412;-93
2023/01/26 06:19:07;;;;;;;9.82;6.43;;;0.60;99.90;;;;;;7403599;19;20349;-86
2023/01/26 06:21:56;;;;;;;9.33;6.23;;;0.60;99.90;;;;;;7291853;19;2004356;-92
2023/01/26 06:24:22;;;;;;;8.73;5.80;;;0.60;99.90;;;;;;7408707;19;20348;-90
2023/01/26 06:26:48;;;;;;;8.90;6.33;;;0.60;99.90;;;;;;7406582;19;20311;-91
2023/01/26 06:29:15;;;;;;;8.52;6.43;;;0.60;99.90;;;;;;7405180;19;20342;-93
2023/01/26 06:31:41;;;;;;;10.15;7.43;;;0.60;99.90;;;;;;7402771;19;20329;-91
2023/01/26 06:34:07;;;;;;;9.65;6.25;;;0.60;99.90;;;;;;7406597;19;20402;-90
2023/01/26 06:36:37;;;;;;;8.70;6.22;;;0.40;99.90;;;;;;7404237;19;20329;-93
2023/01/26 06:39:06;;;;;;;9.63;6.37;;;0.50;99.90;;;;;;7408777;19;20312;-85
2023/01/26 06:41:32;;;;;;;9.75;6.68;;;0.60;99.90;;;;;;7410064;19;20348;-90
2023/01/26 06:43:57;;;;;;;9.82;6.28;;;0.40;99.90;;;;;;7412171;19;20309;-89
2023/01/26 06:46:23;;;;;;;8.93;6.20;;;0.40;99.90;;;;;;7405523;19;20316;-89
2023/01/26 06:48:54;;;;;;;10.25;7.30;;;0.60;99.90;;;;;;7408446;19;20351;-88
2023/01/26 06:51:20;;;;;;;8.68;5.90;;;0.40;99.90;;;;;;7407664;19;20309;-90
2023/01/26 06:53:47;;;;;;;11.07;7.07;;;0.40;99.90;;;;;;7405843;19;20308;-88
2023/01/26 06:56:27;;;;;;;9.45;7.35;;;0.40;99.90;;;;;;7306594;19;2004218;-90
2023/01/26 06:59:12;;;;;;;12.00;7.87;;;0.30;99.90;;;;;;7407094;19;20355;-90
2023/01/26 07:01:47;;;;;;;12.40;7.80;;;0.30;99.90;;;;;;7410060;19;20321;-89
2023/01/26 07:04:13;;;;;;;11.27;7.68;;;0.30;99.90;;;;;;7407087;19;20341;-90
2023/01/26 07:06:38;;;;;;;13.10;8.13;;;0.30;99.90;;;;;;7407137;19;20316;-88
2023/01/26 07:09:04;;;;;;;10.80;6.87;;;0.30;99.90;;;;;;7406262;19;20344;-94
2023/01/26 07:11:31;;;;;;;9.48;6.13;;;0.30;99.90;;;;;;7400376;19;20328;-87
2023/01/26 07:13:57;;;;;;;10.48;6.70;;;0.30;99.90;;;;;;7402810;19;20940;-86
2023/01/26 07:16:22;;;;;;;8.93;6.27;;;0.40;99.90;;;;;;7403195;19;20320;-89
2023/01/26 07:18:48;;;;;;;11.75;6.03;;;0.30;99.90;;;;;;7402598;19;20308;-92
2023/01/26 07:21:17;;;;;;;10.03;6.87;;;0.20;99.90;;;;;;7403783;19;20297;-89
2023/01/26 07:23:42;;;;;;;11.18;7.18;;;0.30;99.90;;;;;;7401828;19;20325;-90
2023/01/26 07:26:08;;;;;;;9.55;6.60;;;0.40;99.90;;;;;;7410462;19;20321;-86
2023/01/26 07:28:34;;;;;;;11.43;7.10;;;0.30;99.90;;;;;;7406488;19;20335;-90
2023/01/26 07:31:00;;;;;;;11.32;7.15;;;0.30;99.90;;;;;;7403836;19;20365;-93
2023/01/26 07:33:27;;;;;;;10.10;6.60;;;0.30;99.90;;;;;;7409906;19;20313;-92
2023/01/26 07:35:56;;;;;;;11.65;7.60;;;0.20;99.90;;;;;;7408682;19;20317;-89
2023/01/26 07:38:21;;;;;;;10.10;6.87;;;0.20;99.90;;;;;;7409238;19;20300;-94
2023/01/26 07:40:47;;;;;;;15.57;6.80;;;0.20;99.90;;;;;;7413149;19;20386;-88
2023/01/26 07:43:13;;;;;;;10.65;6.82;;;0.00;99.90;;;;;;7413988;19;20336;-88
2023/01/26 07:45:52;;;;;;;11.05;7.00;;;0.00;99.90;;;;;;7415258;19;20321;-89
2023/01/26 07:48:19;;;;;;;9.05;5.93;;;0.00;99.90;;;;;;7413692;19;20313;-88
2023/01/26 07:50:46;;;;;;;13.68;7.72;;;-0.10;99.90;;;;;;7408828;19;20312;-88
2023/01/26 07:53:14;;;;;;;10.53;6.93;;;0.10;99.90;;;;;;7408672;19;20321;-91
2023/01/26 07:55:42;;;;;;;11.00;6.90;;;0.10;99.90;;;;;;7417666;19;20344;-90
2023/01/26 07:58:09;;;;;;;11.60;7.88;;;0.20;99.90;;;;;;7416528;19;20914;-90
2023/01/26 08:00:34;;;;;;;11.80;7.18;;;0.20;99.90;;;;;;7412854;19;20328;-90
2023/01/26 08:03:00;;;;;;;13.23;7.00;;;0.20;99.90;;;;;;7412034;19;20752;-93
2023/01/26 08:05:25;;;;;;;9.25;6.20;;;0.30;99.90;;;;;;7408632;19;20330;-93
2023/01/26 08:07:51;;;;;;;12.27;7.57;;;0.30;99.90;;;;;;7409754;19;20317;-92
2023/01/26 08:10:17;;;;;;;9.82;7.43;;;0.30;99.90;;;;;;7401372;19;20313;-89
2023/01/26 08:12:42;;;;;;;10.23;5.93;;;0.30;99.90;;;;;;7402530;19;20394;-92
2023/01/26 08:15:09;;;;;;;10.93;6.50;;;0.40;99.90;;;;;;7400117;19;20330;-92
2023/01/26 08:17:35;;;;;;;10.95;6.93;;;0.40;99.90;;;;;;7402317;19;20407;-93
2023/01/26 08:20:00;;;;;;;11.80;7.60;;;0.50;99.90;;;;;;7403146;19;20727;-87
2023/01/26 08:22:26;;;;;;;11.75;7.43;;;0.60;99.90;;;;;;7405532;19;20324;-90
2023/01/26 08:24:52;;;;;;;13.13;8.13;;;0.30;99.90;;;;;;7409852;19;20321;-89
2023/01/26 08:27:17;;;;;;;9.93;6.75;;;0.40;99.90;;;;;;7411325;19;20305;-87
2023/01/26 08:29:43;;;;;;;12.10;7.07;;;0.30;99.90;;;;;;7410123;19;21098;-93
2023/01/26 08:32:08;;;;;;;9.65;6.28;;;0.30;99.90;;;;;;7407390;19;20367;-91
2023/01/26 08:34:34;;;;;;;8.13;5.20;;;0.30;99.90;;;;;;7404580;19;20309;-88
2023/01/26 08:37:00;;;;;;;9.48;6.40;;;0.30;99.90;;;;;;7403545;19;20331;-90
2023/01/26 08:39:26;;;;;;;10.05;6.70;;;0.40;99.90;;;;;;7397975;19;20671;-93
2023/01/26 08:41:52;;;;;;;11.80;7.18;;;0.40;99.90;;;;;;7402675;19;20301;-94
2023/01/26 08:44:18;;;;;;;10.50;6.22;;;0.40;99.90;;;;;;7405589;19;20333;-89
2023/01/26 08:46:43;;;;;;;14.60;6.50;;;0.30;99.90;;;;;;7394396;19;20341;-91
2023/01/26 08:49:09;;;;;;;11.32;6.35;;;0.30;99.90;;;;;;7397831;19;20352;-93
2023/01/26 08:51:34;;;;;;;9.60;6.90;;;0.30;99.90;;;;;;7400833;19;20361;-90
2023/01/26 08:54:00;;;;;;;11.45;5.63;;;0.30;99.90;;;;;;7412656;19;20949;-90
2023/01/26 08:56:26;;;;;;;8.13;5.57;;;0.30;99.90;;;;;;7408742;19;20309;-91
2023/01/26 08:58:51;;;;;;;10.65;6.22;;;0.30;99.90;;;;;;7406791;19;20353;-91
2023/01/26 09:01:17;;;;;;;9.43;6.33;;;0.30;99.90;;;;;;7388498;19;20357;-91
2023/01/26 09:03:43;;;;;;;9.40;6.50;;;0.40;99.90;;;;;;7403590;19;20422;-79
2023/01/26 09:06:09;;;;;;;9.93;5.47;;;0.40;99.90;;;;;;7388748;19;20317;-82
2023/01/26 09:08:35;;;;;;;7.10;4.93;;;0.50;99.90;;;;;;7388198;19;20357;-80
2023/01/26 09:11:01;;;;;;;8.48;5.68;;;0.50;99.90;;;;;;7385519;19;20359;-83
2023/01/26 09:13:26;;;;;;;8.27;5.60;;;0.50;99.90;;;;;;7386719;19;20336;-89
2023/01/26 09:15:52;;;;;;;8.40;5.07;;;0.40;99.90;;;;;;7389375;19;21177;-85
2023/01/26 09:18:18;;;;;;;7.05;4.65;;;0.50;99.90;;;;;;7388251;19;20312;-79
2023/01/26 09:20:43;;;;;;;9.77;6.60;;;0.50;99.90;;;;;;7385535;19;20316;-84
2023/01/26 09:23:11;;;;;;;9.40;6.18;;;0.40;99.90;;;;;;7386874;19;20320;-88
2023/01/26 09:25:37;;;;;;;9.95;5.95;;;0.40;99.90;;;;;;7386228;19;20341;-82
2023/01/26 09:28:03;;;;;;;11.13;6.40;;;0.50;99.90;;;;;;7392619;19;20312;-79
2023/01/26 09:30:29;;;;;;;9.95;7.13;;;0.50;99.90;;;;;;7396080;19;20345;-88
2023/01/26 09:33:01;;;;;;;10.90;7.30;;;0.60;99.90;;;;;;7393870;19;20681;-81
2023/01/26 09:35:27;;;;;;;11.10;6.13;;;0.60;99.90;;;;;;7394956;19;20301;-87
2023/01/26 09:37:53;;;;;;;9.25;6.03;;;0.50;99.90;;;;;;7396027;19;20734;-93
2023/01/26 09:40:41;;;;;;;11.25;8.02;;;0.50;99.90;;;;;;7395088;19;20321;-82
2023/01/26 09:43:17;;;;;;;9.80;6.97;;;0.50;99.90;;;;;;7293480;19;2004174;-77
2023/01/26 09:45:51;;;;;;;9.83;6.60;;;0.40;99.90;;;;;;7393511;19;20309;-82
2023/01/26 09:48:21;;;;;;;12.57;6.90;;;0.40;99.90;;;;;;7398028;19;20317;-88
2023/01/26 09:50:55;;;;;;;11.93;7.45;;;0.30;99.90;;;;;;7391873;19;20319;-85
2023/01/26 09:53:29;;;;;;;10.20;7.18;;;0.30;99.90;;;;;;7395901;19;20408;-79
2023/01/26 09:55:55;;;;;;;9.70;7.07;;;0.40;99.90;;;;;;7292273;19;2020333;-79
2023/01/26 09:58:32;;;;;;;12.83;7.27;;;0.40;99.90;;;;;;7397855;19;20320;-80
2023/01/26 10:00:59;;;;;;;12.52;8.25;;;0.40;99.90;;;;;;7288098;19;2010305;-79
2023/01/26 10:03:28;;;;;;;12.40;7.65;;;0.40;99.90;;;;;;7394859;19;20339;-84
2023/01/26 10:06:16;;;;;;;11.27;7.23;;;0.40;99.90;;;;;;7395361;19;20315;-83
2023/01/26 10:09:02;;;;;;;14.68;7.75;;;0.30;99.90;;;;;;7293383;19;2004447;-76
2023/01/26 10:11:39;;;;;;;12.38;8.80;;;0.40;99.90;;;;;;7391091;19;20407;-81
2023/01/26 10:14:13;;;;;;;14.70;9.27;;;0.40;99.90;;;;;;7391938;19;20321;-78
2023/01/26 10:16:38;;;;;;;14.27;7.60;;;0.40;99.90;;;;;;7395589;19;20349;-83
2023/01/26 10:19:09;;;;;;;13.25;7.97;;;0.50;99.90;;;;;;7395590;19;20774;-85
2023/01/26 10:21:38;;;;;;;12.75;8.60;;;0.40;99.90;;;;;;7392111;19;20366;-81
2023/01/26 10:24:04;;;;;;;11.85;7.43;;;0.40;99.90;;;;;;7392509;19;20325;-85
2023/01/26 10:26:31;;;;;;;13.43;7.97;;;0.40;99.90;;;;;;7393394;19;21220;-83
2023/01/26 10:28:57;;;;;;;11.00;7.35;;;0.40;99.90;;;;;;7395765;19;20317;-83
2023/01/26 10:31:27;;;;;;;14.57;8.77;;;0.40;99.90;;;;;;7385729;19;21200;-84
2023/01/26 10:33:58;;;;;;;11.77;8.25;;;0.40;99.90;;;;;;7388872;19;20319;-79
2023/01/26 10:36:26;;;;;;;17.65;9.30;;;0.40;99.90;;;;;;7287748;19;2006302;-78
2023/01/26 10:38:51;;;;;;;11.87;7.57;;;0.40;99.90;;;;;;7391703;19;20324;-79
2023/01/26 10:41:25;;;;;;;12.77;8.77;;;0.50;99.90;;;;;;7388763;19;20319;-78
2023/01/26 10:43:53;;;;;;;13.25;9.35;;;0.60;99.90;;;;;;7389846;19;20367;-80
2023/01/26 10:46:25;;;;;;;13.35;8.35;;;0.70;99.90;;;;;;7395552;19;20313;-77
2023/01/26 10:48:55;;;;;;;12.73;9.20;;;0.70;99.90;;;;;;7392047;19;20322;-77
2023/01/26 10:51:32;;;;;;;15.27;9.43;;;0.70;99.90;;;;;;7386467;19;20692;-77
2023/01/26 10:54:22;;;;;;;15.23;8.97;;;0.60;99.90;;;;;;7285542;19;2005894;-77
2023/01/26 10:56:55;;;;;;;15.60;9.60;;;0.50;99.90;;;;;;7390779;19;20312;-79
2023/01/26 10:59:36;;;;;;;12.18;8.65;;;0.60;99.90;;;;;;7391600;19;20318;-79
2023/01/26 11:02:14;;;;;;;14.68;9.50;;;0.60;99.90;;;;;;7283699;19;2019685;-80
2023/01/26 11:04:40;;;;;;;16.42;8.80;;;0.60;99.90;;;;;;7389743;19;20332;-84
2023/01/26 11:07:27;;;;;;;14.32;8.65;;;0.50;99.90;;;;;;7390991;19;20324;-77
2023/01/26 11:09:53;;;;;;;11.68;8.38;;;0.50;99.90;;;;;;7390203;19;20312;-79
2023/01/26 11:12:19;;;;;;;12.40;8.00;;;0.50;99.90;;;;;;7387113;19;20535;-79
2023/01/26 11:15:05;;;;;;;14.53;8.73;;;0.60;99.90;;;;;;7389213;19;20313;-78
2023/01/26 11:17:39;;;;;;;14.93;9.75;;;0.60;99.90;;;;;;7284632;19;2025474;-81
2023/01/26 11:20:17;;;;;;;16.90;11.07;;;0.60;99.90;;;;;;7387495;19;20795;-81
2023/01/26 11:23:00;;;;;;;19.05;10.88;;;0.60;99.90;;;;;;7386181;19;20339;-80
2023/01/26 11:25:55;;;;;;;15.02;9.70;;;0.50;99.90;;;;;;7286062;19;2004330;-81
2023/01/26 11:28:46;;;;;;;13.82;9.27;;;0.50;99.90;;;;;;7387163;19;20297;-79
2023/01/26 11:31:32;;;;;;;15.15;10.45;;;0.50;99.90;;;;;;7282658;19;2004585;-79
2023/01/26 11:34:13;;;;;;;12.88;9.27;;;0.60;99.90;;;;;;7284663;19;2004350;-78
2023/01/26 11:36:57;;;;;;;15.63;8.25;;;0.70;99.90;;;;;;7389980;19;20345;-79
2023/01/26 11:39:39;;;;;;;14.32;8.65;;;0.80;99.90;;;;;;7388255;19;20356;-79
2023/01/26 11:42:26;;;;;;;12.07;7.93;;;0.80;99.90;;;;;;7282077;19;2020097;-79
2023/01/26 11:45:16;;;;;;;14.25;9.02;;;0.80;99.90;;;;;;7386711;19;20404;-77
2023/01/26 11:48:20;;;;;;;31.00;19.98;;;0.90;99.90;;;;;;7285395;19;2004640;-78
2023/01/26 11:51:01;;;;;;;14.57;9.80;;;0.80;99.90;;;;;;7283672;19;2004472;-80
2023/01/26 11:53:49;;;;;;;11.40;7.43;;;0.90;99.90;;;;;;7283504;19;2019691;-83
2023/01/26 11:56:34;;;;;;;14.35;9.65;;;0.90;99.90;;;;;;7387399;19;20341;-78
2023/01/26 11:59:02;;;;;;;15.07;8.95;;;0.80;99.90;;;;;;7282326;19;2004476;-79
2023/01/26 12:01:30;;;;;;;12.75;8.63;;;0.90;99.90;;;;;;7385327;19;20337;-78
2023/01/26 12:03:56;;;;;;;10.90;7.35;;;0.80;99.90;;;;;;7384334;19;20316;-78
2023/01/26 12:06:38;;;;;;;15.25;7.97;;;0.80;99.90;;;;;;7388553;19;20344;-81
2023/01/26 12:09:20;;;;;;;13.50;9.02;;;0.90;99.90;;;;;;7283351;19;2016827;-79
2023/01/26 12:11:57;;;;;;;10.63;7.80;;;0.90;99.90;;;;;;7391211;19;20311;-78
2023/01/26 12:14:25;;;;;;;13.80;8.88;;;0.80;99.90;;;;;;7386971;19;20315;-78
2023/01/26 12:17:15;;;;;;;14.33;8.80;;;0.60;99.90;;;;;;7388183;19;20315;-78
2023/01/26 12:20:03;;;;;;;13.13;9.30;;;0.50;99.90;;;;;;7283340;19;2004747;-82
2023/01/26 12:22:37;;;;;;;15.63;9.65;;;0.70;99.90;;;;;;7281406;19;2004624;-77
2023/01/26 12:25:22;;;;;;;13.75;9.07;;;0.70;99.90;;;;;;7385893;19;20832;-77
2023/01/26 12:27:57;;;;;;;14.97;9.43;;;0.70;99.90;;;;;;7387373;19;20336;-82
2023/01/26 12:30:30;;;;;;;12.60;7.80;;;0.80;99.90;;;;;;7388040;19;20301;-78
2023/01/26 12:32:56;;;;;;;11.82;7.90;;;0.80;99.90;;;;;;7282795;19;2004536;-77
2023/01/26 12:36:00;;;;;;;11.57;7.40;;;0.90;99.90;;;;;;7385726;19;20320;-78
2023/01/26 12:38:51;;;;;;;12.60;8.70;;;1.00;99.90;;;;;;7180418;19;2004839;-78
2023/01/26 12:41:35;;;;;;;15.27;9.67;;;0.90;99.90;;;;;;7383228;19;20801;-79
2023/01/26 12:44:19;;;;;;;12.93;8.63;;;0.90;99.90;;;;;;7284075;19;2004682;-78
2023/01/26 12:46:51;;;;;;;17.77;9.73;;;0.80;99.90;;;;;;7385698;19;20305;-78
2023/01/26 12:49:21;;;;;;;11.95;9.13;;;0.70;99.90;;;;;;7385708;19;20333;-79
2023/01/26 12:51:53;;;;;;;12.27;7.68;;;0.80;99.90;;;;;;7383510;19;20329;-77
2023/01/26 12:54:31;;;;;;;11.35;7.78;;;0.60;99.90;;;;;;7385518;19;20396;-79
2023/01/26 12:56:58;;;;;;;14.10;8.43;;;0.70;99.90;;;;;;7283002;19;2019667;-79
2023/01/26 12:59:34;;;;;;;12.17;8.23;;;0.70;99.90;;;;;;7385290;19;21216;-83
2023/01/26 13:02:22;;;;;;;11.10;7.78;;;0.60;99.90;;;;;;7282724;19;2004521;-78
2023/01/26 13:04:47;;;;;;;10.35;7.10;;;0.60;99.90;;;;;;7391431;19;20296;-79
2023/01/26 13:07:38;;;;;;;12.88;7.55;;;0.70;99.90;;;;;;7391220;19;20306;-80
2023/01/26 13:10:13;;;;;;;12.17;7.47;;;0.70;99.90;;;;;;7290256;19;2006137;-79
2023/01/26 13:13:15;;;;;;;7.88;5.45;;;0.60;99.90;;;;;;7392253;19;20329;-80
2023/01/26 13:15:41;;;;;;;7.32;5.65;;;0.50;99.90;;;;;;7287892;19;2004653;-79
2023/01/26 13:18:09;;;;;;;10.03;6.43;;;0.60;99.90;;;;;;7394080;19;20316;-79
2023/01/26 13:20:44;;;;;;;9.05;7.05;;;0.50;99.90;;;;;;7391826;19;20336;-77
2023/01/26 13:23:41;;;;;;;9.80;6.20;;;0.60;99.90;;;;;;7393364;19;21188;-78
2023/01/26 13:26:11;;;;;;;10.63;6.40;;;0.70;99.90;;;;;;7289338;19;2004387;-80
2023/01/26 13:28:36;;;;;;;9.57;6.68;;;0.50;99.90;;;;;;7391832;19;20376;-77
2023/01/26 13:31:05;;;;;;;9.90;5.75;;;0.60;99.90;;;;;;7386906;19;20892;-76
2023/01/26 13:33:30;;;;;;;9.18;5.82;;;0.50;99.90;;;;;;7391602;19;20343;-77
2023/01/26 13:35:56;;;;;;;8.93;5.45;;;0.60;99.90;;;;;;7391760;19;20309;-78
2023/01/26 13:38:34;;;;;;;12.43;7.70;;;0.50;99.90;;;;;;7392469;19;20329;-78
2023/01/26 13:40:59;;;;;;;12.60;9.07;;;0.50;99.90;;;;;;7288410;19;2004436;-79
2023/01/26 13:43:30;;;;;;;11.50;7.23;;;0.50;99.90;;;;;;7390765;19;20372;-80
2023/01/26 13:46:10;;;;;;;9.55;6.28;;;0.60;99.90;;;;;;7391581;19;20333;-78
2023/01/26 13:48:39;;;;;;;9.25;6.47;;;0.60;99.90;;;;;;7389948;19;20333;-79
2023/01/26 13:51:05;;;;;;;8.77;5.63;;;0.60;99.90;;;;;;7391142;19;20341;-81
2023/01/26 13:53:36;;;;;;;8.20;5.78;;;0.60;99.90;;;;;;7391197;19;20344;-80